Skip Navigation LinksHome page > Weather > Current weather Skip Navigation Links

Current Weather

The William B Hartsfield Atlanta Intl, Atlanta

For information only: do not use for flight planning or navigation.
Latest weather
Observation time Sunday, May 26, 2019 10:52 AM EDT
Local time Sunday, May 26, 2019 11:35 AM EDT
Flight conditions Visual Meteorological Conditions
Winds
Wind direction West-Northwest (290°)
Wind speed 8 mph
Visibility 10 mi.
Sky condition
Ceiling unlimited
Cloud layer few clouds 25,000 ft.
Temperature 88°F
Dewpoint 65°F
Altimeter 30.20 in.Hg
Pressure change last 3 hours-0.01 in.Hg
Pressure rising, then falling
Derived measurements
Relative humidity 47%
Heat index 90°F
Density altitude 2839 ft.
Sea-level pressure 30.16 in.Hg
Remarks
Automated weather observing station with precipitation discriminator.
METAR KATL 261452Z 29007KT 10SM FEW250 31/18 A3020 RMK AO2 SLP213 T03110183 50004

Settings

Location code

InnerDrive.Weather 4.0.6770.0 Release CLR 4.0.30319.42000
Copyright ©2018 Inner Drive Technology. All rights reserved. Portions Copyright ©1986-2018 David Braverman.

Find weather

Site navigation


Skip Navigation Links

Place info

Page info

PayPal - The safer, easier way to pay online!

Return home.

Copyright ©2019 Inner Drive Technology. Purveyors of fine, hand-crafted computer software. Page printed 2019-05-26T15:35:36 UTC.